Fernando Ramirez

Olheiro - Santa Fe
10 Abr 2027
Sábado
Processo

Personalidade

Adaptabilidade (6) Ambição (7) Controvérsia (7) Lealdade (10) Pressão (1) Profissionalismo (8) Espírito Esportivo (14) Temperamento (8)

Perfil

Estilo de Treinamento Democrático
Licença Continental A
Determinação 5
Gestão de Pessoas 4
Motivação 9
Disciplina 6
Satisfação no Trabalho
99%
Fadiga
0%
Função Olheiro
Salário 96.1K p/s
Contrato 14.03.2030

Desempenho

Comportamento Bom
Eficácia do Treinamento
49%
Desenvolvimento do Jogador
35%
Prevenção de Lesões
30%
Implementação Tática
45%

Eventos Recentes

Participou de uma reunião de recrutamento agora
Participou de uma reunião de recrutamento 7d atrás
Participou de uma reunião de recrutamento 14d atrás
Participou de uma reunião de recrutamento 21d atrás
Avaliou um jogador 21d atrás
Avaliou um jogador 21d atrás
Participou de uma reunião de recrutamento 28d atrás
Participou de uma reunião de recrutamento 35d atrás

Monitorando agora

64
Jogador Clube Status Habilidade Confiança Observado Última observação Último voto
Gladson Sulemana Liberty Professionals Ativo 87 / 104 40% 2 09.04.2027 -
Araphat Mohammed Medeama Ativo 105 / 113 40% 1 09.04.2027 -
Mfundo Vilakazi Kaizer Chiefs Ativo 113 / 132 40% 1 09.04.2027 -
Oscar Schwartau Norwich City Ativo 118 / 147 40% 1 08.04.2027 -
Chemsdine Talbi Sunderland Ativo 149 / 139 40% 1 08.04.2027 -
Paulo Iago Sporting CP Ativo 88 / 107 40% 1 08.04.2027 -
Juan David Arizala Udinese Ativo 118 / 124 40% 1 18.03.2027 -
T-Jay Parfitt Cardiff City Ativo 83 / 111 40% 1 18.03.2027 -
Surprise Manthosi Polokwane City Ativo 97 / 91 40% 1 18.03.2027 -
Eivind Helland Bologna Ativo 134 / 119 40% 1 17.03.2027 -
Joel McGregor Swindon Town Ativo 95 / 104 40% 1 17.03.2027 -
Christos Mouzakitis Hull City Ativo 124 / 148 40% 1 17.03.2027 -
Enzo Cardozo Virtus Entella Ativo 108 / 109 40% 1 04.02.2027 -
Riquelme Thompson-Jones Shrewsbury Town Ativo 100 / 115 40% 1 04.02.2027 -
Dylan Lawlor Cardiff City Ativo 114 / 123 40% 1 02.02.2027 -
Jonathan De Irastorza Levante Ativo 127 / 137 40% 1 02.02.2027 -
Maeson King Blackpool Ativo 106 / 117 40% 1 02.02.2027 -
Joaquin Seys Club Brugge Ativo 123 / 140 40% 1 01.02.2027 -
Lucas Agazzi Defensor Sporting Ativo 122 / 124 40% 1 01.02.2027 -
Enzo Avaro Mitre Ativo 118 / 110 40% 2 29.11.2026 -
Dilan Godoy Vélez Ativo 105 / 127 40% 1 29.11.2026 -
Tyrese Campbell Sheffield United Ativo 136 / 138 40% 1 28.11.2026 -
Moctar Diop KAA Gent Ativo 109 / 117 40% 1 28.11.2026 -
Luciano Gondou CSKA Moscow Ativo 130 / 115 40% 1 28.11.2026 -
David Miculescu FCSB Ativo 112 / 121 40% 1 27.11.2026 -
Ezequiel Almirón Estudiantes Ativo 115 / 123 40% 2 24.11.2026 -
Ammar Ramadan DAC Dunajska Streda Ativo 134 / 106 40% 1 24.11.2026 -
Jovon Makama Norwich City Ativo 120 / 110 40% 1 24.11.2026 -
Alexis Cuello San Lorenzo Rejeitado 122 / 122 40% 3 19.11.2026 Rejeitar
Yoshan Valois Lanús Ativo 117 / 122 40% 4 19.11.2026 -
Eugenio Olivera Talleres Ativo 105 / 93 40% 1 19.11.2026 -
Mauro Méndez Tigre Ativo 117 / 108 40% 1 18.11.2026 -
Santiago Sala Güemes Ativo 113 / 100 40% 2 14.11.2026 -
Gastón Verón Argentinos Juniors Ativo 124 / 129 40% 1 14.11.2026 -
Dilan Ortíz Ufa Ativo 97 / 111 40% 1 14.11.2026 -
Brayan Moreno Banfield Ativo 116 / 121 40% 2 12.11.2026 -
Luther Tau SuperSport United Ativo 117 / 123 40% 1 12.11.2026 -
Erik Bodencer Central Norte Ativo 110 / 109 40% 1 10.11.2026 -
Camilo Durán Bloemfontein Celtic Ativo 126 / 109 40% 2 06.11.2026 -
Yousef Salech Cardiff City Perdido 135 / 142 40% 1 06.11.2026 -
Jhon Aponza Boca Juniors Ativo 104 / 103 40% 1 05.11.2026 -
Nicolás Cordero Aldosivi Ativo 116 / 125 40% 1 05.11.2026 -
Antony Medrano Giresunspor Ativo 98 / 78 40% 1 04.11.2026 -
Thiago Calone All Boys Ativo 112 / 107 40% 1 03.11.2026 -
Marcos Machado Mitre Ativo 105 / 113 40% 1 03.11.2026 -
Tommy Conway Middlesbrough Rejeitado 132 / 137 40% 1 03.11.2026 Mais informações
Ignacio Russo Tigre Ativo 125 / 127 40% 1 24.10.2026 -
Favio Cabral Mitre Ativo 115 / 105 40% 1 22.10.2026 -
Franco Fagúndez Estudiantes Ativo 119 / 123 40% 1 22.10.2026 -
Matías Giménez Rojas Argentinos Juniors Ativo 125 / 131 40% 1 21.10.2026 -
Marcelo Flores Tigres Ativo 122 / 110 40% 1 21.10.2026 -
Gaspar Duarte Rosario Central Ativo 121 / 114 40% 1 13.10.2026 -
Alexander Díaz Deportivo Riestra Ativo 122 / 121 40% 1 10.10.2026 -
Gonzalo Flores Almirante Brown Ativo 111 / 123 40% 1 10.10.2026 -
Florián Monzón Atlas Ativo 122 / 134 40% 1 09.10.2026 -
Luca Martínez Dupuy Godoy Cruz Ativo 115 / 116 40% 1 09.10.2026 -
Juan Rocca Gimnasia y Tiro Ativo 109 / 110 40% 1 08.10.2026 -
Ramiro Ruiz Rodríguez Atlético Tucumán Ativo 118 / 124 40% 1 05.10.2026 -
Misael Sosa Godoy Cruz Ativo 111 / 103 40% 1 05.10.2026 -
Uriel Antuna Pumas UNAM Ativo 137 / 146 40% 1 04.08.2026 -
Juninho Pumas UNAM Ativo 122 / 140 40% 1 03.08.2026 -
Jorge Sánchez Atlas Ativo 126 / 139 40% 1 03.08.2026 -
Gonzalo Falcón Cienciano Ativo 110 / 124 40% 1 01.08.2026 -
Diego Romero Universitario Ativo 124 / 128 40% 1 01.08.2026 -